Time;durP1;ratioP1;P1;durP2;ratioP2;P2;SDS_P1;SDS_P2;PMS_P1;PMS_P2;Temp;Humidity;BMP_temperature;BMP_pressure;BME280_temperature;BME280_humidity;BME280_pressure;Samples;Min_cycle;Max_cycle;Signal;HPM_P1;HPM_P2
2023/04/14 00:00:11;;;;;;;;;;;7.90;72.40;;;;;;4973329;28;20472;-83
2023/04/14 00:02:37;;;;;;;;;;;7.90;72.50;;;;;;4971599;28;20403;-84
2023/04/14 00:05:03;;;;;;;;;;;7.90;72.50;;;;;;4994270;28;19914;-84
2023/04/14 00:07:28;;;;;;;;;;;7.90;72.90;;;;;;4999727;28;19917;-83
2023/04/14 00:09:54;;;;;;;;;;;7.90;72.70;;;;;;4969345;28;19918;-83
2023/04/14 00:12:19;;;;;;;;;;;7.90;71.40;;;;;;4960358;28;19956;-83
2023/04/14 00:14:45;;;;;;;;;;;7.90;72.40;;;;;;4976092;28;19921;-83
2023/04/14 00:17:10;;;;;;;;;;;7.80;72.70;;;;;;4959579;28;19910;-83
2023/04/14 00:19:36;;;;;;;;;;;7.90;72.50;;;;;;4966488;28;20490;-83
2023/04/14 00:22:01;;;;;;;;;;;7.80;73.10;;;;;;5006194;28;19976;-83
2023/04/14 00:24:27;;;;;;;;;;;7.70;72.80;;;;;;4988915;28;19978;-83
2023/04/14 00:26:52;;;;;;;;;;;7.60;73.60;;;;;;4979813;28;19918;-83
2023/04/14 00:29:18;;;;;;;;;;;7.60;73.60;;;;;;4985243;28;19913;-83
2023/04/14 00:31:43;;;;;;;;;;;7.50;74.30;;;;;;4995510;28;19981;-83
2023/04/14 00:34:09;;;;;;;;;;;7.40;74.60;;;;;;4985987;28;19914;-83
2023/04/14 00:36:35;;;;;;;;;;;7.30;74.40;;;;;;4984044;28;19910;-83
2023/04/14 00:39:03;;;;;;;;;;;7.30;74.90;;;;;;4982267;28;19918;-83
2023/04/14 00:41:31;;;;;;;;;;;7.30;75.20;;;;;;4969586;28;19914;-83
2023/04/14 00:43:57;;;;;;;;;;;7.20;75.40;;;;;;5001287;28;19989;-84
2023/04/14 00:46:23;;;;;;;;;;;7.20;75.40;;;;;;4983978;28;19925;-83
2023/04/14 00:48:49;;;;;;;;;;;7.10;75.50;;;;;;4984733;28;19910;-82
2023/04/14 00:51:14;;;;;;;;;;;7.10;75.50;;;;;;5003830;28;19921;-83
2023/04/14 00:53:40;;;;;;;;;;;7.10;75.40;;;;;;4996681;28;19925;-83
2023/04/14 00:56:06;;;;;;;;;;;7.00;75.40;;;;;;4984337;28;20008;-83
2023/04/14 00:58:31;;;;;;;;;;;7.00;75.90;;;;;;4985751;28;20390;-83
2023/04/14 01:00:57;;;;;;;;;;;7.00;75.20;;;;;;4994878;28;19961;-83
2023/04/14 01:03:23;;;;;;;;;;;6.90;75.60;;;;;;5002997;28;19937;-83
2023/04/14 01:05:49;;;;;;;;;;;6.80;76.10;;;;;;5001379;28;19921;-83
2023/04/14 01:08:15;;;;;;;;;;;6.80;76.60;;;;;;4993316;28;19918;-83
2023/04/14 01:10:45;;;;;;;;;;;6.80;76.90;;;;;;4977722;28;19914;-83
2023/04/14 01:13:15;;;;;;;;;;;6.80;77.00;;;;;;4997177;28;19913;-83
2023/04/14 01:15:46;;;;;;;;;;;6.80;76.80;;;;;;4977625;28;20295;-83
2023/04/14 01:18:23;;;;;;;;;;;6.70;77.00;;;;;;4993663;28;20284;-83
2023/04/14 01:20:50;;;;;;;;;;;6.70;77.00;;;;;;4984215;28;19918;-83
2023/04/14 01:23:20;;;;;;;;;;;6.70;76.90;;;;;;4978609;28;19910;-83
2023/04/14 01:26:01;;;;;;;;;;;6.70;77.00;;;;;;4989163;28;20466;-83
2023/04/14 01:28:44;;;;;;;;;;;6.70;77.10;;;;;;4959004;28;19916;-83
2023/04/14 01:31:22;;;;;;;;;;;6.70;76.90;;;;;;4969447;28;19910;-83
2023/04/14 01:33:49;;;;;;;;;;;6.70;76.50;;;;;;4978779;28;19995;-83
2023/04/14 01:36:18;;;;;;;;;;;6.60;76.70;;;;;;4995287;28;20025;-83
2023/04/14 01:38:45;;;;;;;;;;;6.70;77.20;;;;;;4991585;28;19957;-83
2023/04/14 01:41:12;;;;;;;;;;;6.70;77.10;;;;;;4987097;28;19918;-83
2023/04/14 01:43:41;;;;;;;;;;;6.60;77.30;;;;;;4987709;28;19910;-83
2023/04/14 01:46:08;;;;;;;;;;;6.50;76.60;;;;;;4994940;28;19932;-83
2023/04/14 01:48:35;;;;;;;;;;;6.40;77.30;;;;;;4978061;28;19917;-82
2023/04/14 01:51:01;;;;;;;;;;;6.50;77.40;;;;;;4977764;28;19918;-83
2023/04/14 01:53:29;;;;;;;;;;;6.40;77.50;;;;;;4990194;28;20375;-83
2023/04/14 01:55:56;;;;;;;;;;;6.50;77.60;;;;;;4988438;28;19914;-83
2023/04/14 01:58:22;;;;;;;;;;;6.50;77.70;;;;;;4996637;28;20342;-83
2023/04/14 02:00:48;;;;;;;;;;;6.50;78.00;;;;;;4971216;28;20406;-83
2023/04/14 02:03:17;;;;;;;;;;;6.60;78.30;;;;;;4996118;28;19994;-83
2023/04/14 02:05:43;;;;;;;;;;;6.60;77.90;;;;;;4978194;28;19920;-83
2023/04/14 02:08:11;;;;;;;;;;;6.70;78.30;;;;;;4993423;28;19913;-83
2023/04/14 02:10:37;;;;;;;;;;;6.70;78.30;;;;;;4990711;28;19918;-83
2023/04/14 02:13:02;;;;;;;;;;;6.70;77.90;;;;;;4987990;28;20438;-83
2023/04/14 02:15:30;;;;;;;;;;;6.80;77.90;;;;;;4978073;28;19941;-83
2023/04/14 02:17:57;;;;;;;;;;;6.80;77.70;;;;;;5001041;28;19909;-83
2023/04/14 02:20:24;;;;;;;;;;;6.80;77.90;;;;;;4994065;28;20398;-83
2023/04/14 02:22:49;;;;;;;;;;;6.70;77.90;;;;;;4992933;28;19929;-83
2023/04/14 02:25:15;;;;;;;;;;;6.70;77.40;;;;;;4990559;28;19918;-83
2023/04/14 02:27:40;;;;;;;;;;;6.60;78.20;;;;;;4997419;28;19916;-83
2023/04/14 02:30:18;;;;;;;;;;;6.70;78.10;;;;;;4971831;28;19920;-83
2023/04/14 02:32:45;;;;;;;;;;;6.70;78.20;;;;;;4964447;28;19914;-83
2023/04/14 02:35:15;;;;;;;;;;;6.70;78.10;;;;;;4970000;28;19917;-82
2023/04/14 02:37:43;;;;;;;;;;;6.70;77.80;;;;;;4987086;28;19910;-83
2023/04/14 02:40:14;;;;;;;;;;;6.70;77.70;;;;;;4982520;28;19914;-83
2023/04/14 02:42:40;;;;;;;;;;;6.60;78.40;;;;;;4999171;28;20339;-83
2023/04/14 02:45:07;;;;;;;;;;;6.50;78.20;;;;;;4978133;28;20056;-83
2023/04/14 02:47:37;;;;;;;;;;;6.60;77.90;;;;;;4986416;28;19910;-83
2023/04/14 02:50:03;;;;;;;;;;;6.60;77.80;;;;;;5000378;28;19918;-83
2023/04/14 02:52:30;;;;;;;;;;;6.50;77.70;;;;;;4976816;28;19924;-82
2023/04/14 02:54:57;;;;;;;;;;;6.50;77.80;;;;;;4984024;28;19941;-82
2023/04/14 02:57:22;;;;;;;;;;;6.50;78.10;;;;;;5002216;28;19917;-83
2023/04/14 02:59:48;;;;;;;;;;;6.50;78.10;;;;;;4972850;28;19914;-83
2023/04/14 03:02:14;;;;;;;;;;;6.50;77.70;;;;;;4981307;28;19918;-83
2023/04/14 03:04:40;;;;;;;;;;;6.40;77.80;;;;;;4975012;28;19910;-83
2023/04/14 03:07:07;;;;;;;;;;;6.30;77.60;;;;;;4976367;28;19910;-83
2023/04/14 03:09:33;;;;;;;;;;;6.30;77.60;;;;;;4978930;28;19917;-83
2023/04/14 03:11:59;;;;;;;;;;;6.20;77.80;;;;;;5007245;28;19914;-83
2023/04/14 03:14:26;;;;;;;;;;;6.20;78.60;;;;;;5011757;28;19946;-83
2023/04/14 03:16:52;;;;;;;;;;;6.20;78.40;;;;;;4997884;28;19910;-83
2023/04/14 03:19:22;;;;;;;;;;;6.10;78.40;;;;;;4993679;28;20008;-83
2023/04/14 03:21:49;;;;;;;;;;;6.20;78.00;;;;;;4996334;28;19956;-83
2023/04/14 03:24:19;;;;;;;;;;;6.20;78.20;;;;;;4983299;28;20442;-83
2023/04/14 03:26:46;;;;;;;;;;;6.10;78.90;;;;;;4996056;28;19965;-83
2023/04/14 03:29:13;;;;;;;;;;;6.00;79.10;;;;;;4994440;28;19920;-83
2023/04/14 03:31:40;;;;;;;;;;;6.00;79.60;;;;;;4991504;28;19914;-83
2023/04/14 03:34:07;;;;;;;;;;;6.00;79.40;;;;;;4962320;28;19921;-83
2023/04/14 03:36:34;;;;;;;;;;;6.10;79.30;;;;;;4978496;28;20288;-83
2023/04/14 03:39:00;;;;;;;;;;;6.10;79.20;;;;;;4975980;28;19969;-83
2023/04/14 03:41:26;;;;;;;;;;;6.10;79.40;;;;;;4968762;28;19960;-83
2023/04/14 03:43:53;;;;;;;;;;;6.10;79.50;;;;;;4976235;28;19910;-83
2023/04/14 03:46:19;;;;;;;;;;;6.10;78.90;;;;;;4994242;28;19910;-83
2023/04/14 03:48:46;;;;;;;;;;;6.10;79.00;;;;;;4971936;28;19932;-83
2023/04/14 03:51:12;;;;;;;;;;;6.00;78.90;;;;;;4966693;28;20283;-83
2023/04/14 03:53:40;;;;;;;;;;;6.00;78.60;;;;;;4973207;28;19925;-83
2023/04/14 03:56:07;;;;;;;;;;;6.10;78.70;;;;;;4977271;28;19910;-83
2023/04/14 03:58:33;;;;;;;;;;;6.00;78.70;;;;;;4976333;28;19937;-83
2023/04/14 04:00:59;;;;;;;;;;;6.10;78.60;;;;;;4979580;28;19914;-83
2023/04/14 04:03:25;;;;;;;;;;;6.10;78.70;;;;;;4982098;28;19964;-83
2023/04/14 04:05:51;;;;;;;;;;;6.10;78.90;;;;;;4997172;28;19914;-83
2023/04/14 04:08:17;;;;;;;;;;;6.10;78.90;;;;;;4985685;28;19910;-83
2023/04/14 04:10:45;;;;;;;;;;;6.20;78.90;;;;;;4978676;28;20010;-83
2023/04/14 04:13:13;;;;;;;;;;;6.10;78.70;;;;;;4969680;28;19910;-83
2023/04/14 04:15:39;;;;;;;;;;;6.20;78.80;;;;;;4995318;28;20291;-83
2023/04/14 04:18:05;;;;;;;;;;;6.20;78.90;;;;;;4978180;28;20004;-83
2023/04/14 04:20:31;;;;;;;;;;;6.20;78.80;;;;;;4991626;28;20000;-83
2023/04/14 04:23:00;;;;;;;;;;;6.30;78.70;;;;;;4994559;28;19926;-83
2023/04/14 04:25:25;;;;;;;;;;;6.30;78.90;;;;;;4998945;28;20026;-83
2023/04/14 04:27:51;;;;;;;;;;;6.30;78.50;;;;;;5004445;28;19918;-83
2023/04/14 04:30:17;;;;;;;;;;;6.40;78.10;;;;;;4977864;28;19915;-83
2023/04/14 04:32:43;;;;;;;;;;;6.40;78.10;;;;;;4980093;28;20383;-84
2023/04/14 04:35:08;;;;;;;;;;;6.50;78.10;;;;;;5010790;28;19910;-83
2023/04/14 04:37:35;;;;;;;;;;;6.50;77.90;;;;;;4999719;28;19950;-84
2023/04/14 04:40:00;;;;;;;;;;;6.40;78.20;;;;;;4982937;28;19920;-83
2023/04/14 04:42:26;;;;;;;;;;;6.40;78.40;;;;;;4995032;28;19914;-83
2023/04/14 04:44:51;;;;;;;;;;;6.40;78.40;;;;;;4992688;28;19917;-83
2023/04/14 04:47:17;;;;;;;;;;;6.50;78.60;;;;;;4993590;28;20013;-83
2023/04/14 04:49:42;;;;;;;;;;;6.50;78.90;;;;;;4992408;28;20008;-83
2023/04/14 04:52:08;;;;;;;;;;;6.50;79.10;;;;;;4984005;28;19925;-83
2023/04/14 04:54:34;;;;;;;;;;;6.60;78.70;;;;;;4985458;28;19910;-84
2023/04/14 04:56:59;;;;;;;;;;;6.70;78.60;;;;;;4995670;28;19921;-83
2023/04/14 04:59:25;;;;;;;;;;;6.70;78.60;;;;;;4995805;28;19914;-83
2023/04/14 05:01:50;;;;;;;;;;;6.80;78.00;;;;;;4971068;28;20046;-83
2023/04/14 05:04:16;;;;;;;;;;;6.90;78.10;;;;;;4976358;28;19914;-83
2023/04/14 05:06:42;;;;;;;;;;;6.90;77.90;;;;;;4989699;28;20399;-83
2023/04/14 05:09:07;;;;;;;;;;;6.90;77.60;;;;;;4971825;28;19914;-83
2023/04/14 05:11:33;;;;;;;;;;;7.00;77.80;;;;;;4976795;28;20367;-83
2023/04/14 05:13:59;;;;;;;;;;;7.10;77.40;;;;;;4998065;28;19956;-83
2023/04/14 05:16:24;;;;;;;;;;;7.10;77.30;;;;;;4998250;28;19917;-84
2023/04/14 05:18:51;;;;;;;;;;;7.10;77.10;;;;;;4998338;28;19936;-84
2023/04/14 05:21:16;;;;;;;;;;;7.10;77.10;;;;;;4973523;28;19968;-84
2023/04/14 05:23:43;;;;;;;;;;;7.20;77.70;;;;;;4979752;28;19916;-83
2023/04/14 05:26:09;;;;;;;;;;;7.30;77.50;;;;;;4977016;28;19914;-83
2023/04/14 05:28:35;;;;;;;;;;;7.30;77.10;;;;;;4984784;28;20009;-83
2023/04/14 05:31:01;;;;;;;;;;;7.40;76.20;;;;;;4973487;28;19914;-83
2023/04/14 05:33:26;;;;;;;;;;;7.40;75.80;;;;;;4999846;28;19917;-83
2023/04/14 05:35:51;;;;;;;;;;;7.40;75.60;;;;;;4999294;28;19913;-83
2023/04/14 05:38:17;;;;;;;;;;;7.30;75.60;;;;;;4980604;28;19921;-83
2023/04/14 05:40:43;;;;;;;;;;;7.30;75.80;;;;;;4965813;28;19949;-83
2023/04/14 05:43:08;;;;;;;;;;;7.30;75.70;;;;;;4995777;28;19921;-83
2023/04/14 05:45:34;;;;;;;;;;;7.30;75.70;;;;;;4997678;28;19910;-83
2023/04/14 05:47:59;;;;;;;;;;;7.40;75.20;;;;;;4999034;28;19910;-83
2023/04/14 05:50:25;;;;;;;;;;;7.40;75.40;;;;;;4985288;28;19914;-83
2023/04/14 05:52:51;;;;;;;;;;;7.50;75.50;;;;;;4994634;28;19980;-83
2023/04/14 05:55:17;;;;;;;;;;;7.50;75.10;;;;;;5002638;28;20118;-83
2023/04/14 05:57:42;;;;;;;;;;;7.50;74.80;;;;;;5011969;28;19913;-83
2023/04/14 06:00:08;;;;;;;;;;;7.50;74.80;;;;;;4995374;28;19914;-83
2023/04/14 06:02:34;;;;;;;;;;;7.50;75.70;;;;;;4990744;28;19946;-84
2023/04/14 06:05:00;;;;;;;;;;;7.60;75.70;;;;;;4994409;28;19909;-84
2023/04/14 06:07:26;;;;;;;;;;;7.70;75.20;;;;;;4999818;28;19914;-83
2023/04/14 06:09:51;;;;;;;;;;;7.70;74.70;;;;;;4989124;28;19920;-84
2023/04/14 06:12:17;;;;;;;;;;;7.70;74.70;;;;;;4998769;28;19909;-84
2023/04/14 06:14:42;;;;;;;;;;;7.80;74.80;;;;;;5005601;28;19933;-84
2023/04/14 06:17:08;;;;;;;;;;;7.90;74.80;;;;;;4987382;28;20363;-83
2023/04/14 06:19:33;;;;;;;;;;;8.00;74.30;;;;;;5000477;28;20389;-83
2023/04/14 06:21:59;;;;;;;;;;;8.10;73.50;;;;;;4974648;28;19918;-83
2023/04/14 06:24:25;;;;;;;;;;;7.90;73.30;;;;;;4970641;28;19998;-83
2023/04/14 06:26:50;;;;;;;;;;;7.80;73.90;;;;;;4994056;28;20193;-83
2023/04/14 06:29:16;;;;;;;;;;;7.90;73.80;;;;;;4981053;28;19921;-83
2023/04/14 06:31:41;;;;;;;;;;;7.80;74.10;;;;;;4988937;28;19918;-83
2023/04/14 06:34:07;;;;;;;;;;;7.90;74.30;;;;;;4979888;28;19916;-83
2023/04/14 06:36:32;;;;;;;;;;;8.00;73.80;;;;;;4996447;28;20402;-83
2023/04/14 06:38:58;;;;;;;;;;;8.00;73.90;;;;;;4979671;28;19910;-83
2023/04/14 06:41:23;;;;;;;;;;;8.10;73.40;;;;;;4979616;28;19918;-83
2023/04/14 06:43:49;;;;;;;;;;;8.20;73.10;;;;;;4970696;28;20490;-83
2023/04/14 06:46:16;;;;;;;;;;;8.20;72.70;;;;;;4984157;28;19951;-83
2023/04/14 06:48:41;;;;;;;;;;;8.30;72.90;;;;;;4971661;28;19921;-83
2023/04/14 06:51:09;;;;;;;;;;;8.40;72.60;;;;;;4995960;28;20000;-83
2023/04/14 06:53:34;;;;;;;;;;;8.50;72.30;;;;;;4975809;28;19956;-83
2023/04/14 06:56:00;;;;;;;;;;;8.60;72.50;;;;;;4972184;28;19968;-83
2023/04/14 06:58:26;;;;;;;;;;;8.60;72.30;;;;;;4973757;28;19961;-83
2023/04/14 07:00:56;;;;;;;;;;;8.80;71.80;;;;;;4995773;28;19977;-83
2023/04/14 07:03:21;;;;;;;;;;;8.80;71.40;;;;;;4972004;28;19918;-83
2023/04/14 07:05:47;;;;;;;;;;;9.00;71.10;;;;;;4986757;28;19925;-84
2023/04/14 07:08:12;;;;;;;;;;;8.90;70.50;;;;;;4983349;28;19949;-84
2023/04/14 07:10:37;;;;;;;;;;;9.10;70.50;;;;;;4971338;28;19961;-85
2023/04/14 07:13:03;;;;;;;;;;;9.10;70.10;;;;;;4966781;28;20486;-85
2023/04/14 07:15:28;;;;;;;;;;;9.10;70.10;;;;;;4962145;28;20367;-86
2023/04/14 07:17:54;;;;;;;;;;;9.20;70.00;;;;;;4975256;28;19918;-86
2023/04/14 07:20:19;;;;;;;;;;;9.30;69.80;;;;;;4997046;28;19914;-86
2023/04/14 07:22:45;;;;;;;;;;;9.30;68.80;;;;;;4997612;28;19922;-85
2023/04/14 07:25:10;;;;;;;;;;;9.40;68.60;;;;;;4995512;28;19933;-85
2023/04/14 07:27:36;;;;;;;;;;;9.40;68.40;;;;;;4988077;28;19990;-86
2023/04/14 07:30:01;;;;;;;;;;;9.40;68.80;;;;;;4999461;28;19933;-86
2023/04/14 07:32:27;;;;;;;;;;;9.50;69.30;;;;;;4976070;28;19937;-85
2023/04/14 07:34:52;;;;;;;;;;;9.60;68.10;;;;;;5000738;28;20343;-84
2023/04/14 07:37:18;;;;;;;;;;;9.50;68.70;;;;;;4983721;28;20319;-84
2023/04/14 07:39:43;;;;;;;;;;;9.60;68.60;;;;;;4983646;28;19961;-83
2023/04/14 07:42:08;;;;;;;;;;;9.60;68.40;;;;;;4996996;28;19924;-83
2023/04/14 07:44:34;;;;;;;;;;;9.60;67.90;;;;;;4975384;28;19920;-83
2023/04/14 07:46:59;;;;;;;;;;;9.70;68.00;;;;;;4995885;28;19938;-82
2023/04/14 07:49:25;;;;;;;;;;;10.00;67.20;;;;;;4998911;28;19944;-83
2023/04/14 07:51:50;;;;;;;;;;;9.90;67.40;;;;;;4980610;28;19918;-83
2023/04/14 07:54:16;;;;;;;;;;;9.90;66.80;;;;;;4992236;28;20005;-83
2023/04/14 07:56:41;;;;;;;;;;;9.70;67.60;;;;;;4990573;28;19914;-83
2023/04/14 07:59:06;;;;;;;;;;;9.70;68.00;;;;;;4995558;28;19953;-83
2023/04/14 08:01:32;;;;;;;;;;;9.70;68.70;;;;;;4977177;28;19917;-83
2023/04/14 08:03:57;;;;;;;;;;;9.90;67.30;;;;;;5000093;28;19918;-83
2023/04/14 08:06:23;;;;;;;;;;;10.00;67.80;;;;;;4975389;28;19914;-83
2023/04/14 08:08:48;;;;;;;;;;;10.10;66.50;;;;;;4983722;28;19949;-83
2023/04/14 08:11:14;;;;;;;;;;;10.00;67.20;;;;;;4999758;28;19910;-83
2023/04/14 08:13:39;;;;;;;;;;;10.10;67.60;;;;;;4998820;28;20008;-83
2023/04/14 08:16:05;;;;;;;;;;;10.30;66.50;;;;;;4999528;28;20004;-83
2023/04/14 08:18:30;;;;;;;;;;;10.40;65.40;;;;;;5000729;28;19917;-83
2023/04/14 08:20:56;;;;;;;;;;;10.30;66.80;;;;;;5000208;28;19920;-83
2023/04/14 08:23:21;;;;;;;;;;;10.30;68.10;;;;;;4982032;28;19976;-83
2023/04/14 08:25:47;;;;;;;;;;;10.30;67.80;;;;;;4992235;28;19998;-83
2023/04/14 08:28:12;;;;;;;;;;;10.20;66.50;;;;;;4999326;28;19968;-83
2023/04/14 08:30:38;;;;;;;;;;;10.30;67.10;;;;;;4991379;28;19910;-83
2023/04/14 08:33:03;;;;;;;;;;;10.10;67.30;;;;;;4991773;28;19964;-84
2023/04/14 08:35:29;;;;;;;;;;;10.20;66.50;;;;;;4999290;28;19913;-83
2023/04/14 08:37:54;;;;;;;;;;;10.30;65.70;;;;;;4999472;28;19933;-83
2023/04/14 08:40:20;;;;;;;;;;;10.50;65.90;;;;;;4999029;28;19914;-83
2023/04/14 08:42:46;;;;;;;;;;;10.60;65.60;;;;;;4995605;28;19928;-83
2023/04/14 08:45:11;;;;;;;;;;;10.70;64.20;;;;;;5002417;28;19917;-83
2023/04/14 08:47:38;;;;;;;;;;;10.80;62.70;;;;;;4990462;28;19910;-83
2023/04/14 08:50:06;;;;;;;;;;;10.80;62.60;;;;;;4979524;28;20384;-83
2023/04/14 08:52:34;;;;;;;;;;;11.00;62.50;;;;;;5021199;22;19980;-82
2023/04/14 08:55:03;;;;;;;;;;;11.00;62.50;;;;;;5011360;28;22961;-82
2023/04/14 08:57:30;;;;;;;;;;;11.00;62.60;;;;;;5014265;28;19913;-83
2023/04/14 08:59:56;;;;;;;;;;;11.10;62.10;;;;;;5013736;28;19913;-84
2023/04/14 09:02:22;;;;;;;;;;;11.00;63.20;;;;;;5022408;28;19940;-83
2023/04/14 09:04:48;;;;;;;;;;;11.00;61.80;;;;;;5022546;28;19920;-82
2023/04/14 09:07:14;;;;;;;;;;;11.00;63.10;;;;;;5021757;28;19949;-82
2023/04/14 09:09:40;;;;;;;;;;;11.10;63.10;;;;;;5031905;28;20345;-81
2023/04/14 09:12:07;;;;;;;;;;;11.20;61.90;;;;;;5033407;28;19916;-81
2023/04/14 09:14:32;;;;;;;;;;;11.10;62.00;;;;;;5064658;28;19916;-84
2023/04/14 09:16:58;;;;;;;;;;;11.30;62.60;;;;;;5033096;28;19913;-83
2023/04/14 09:19:24;;;;;;;;;;;11.30;60.50;;;;;;5030820;28;19920;-84
2023/04/14 09:21:50;;;;;;;;;;;11.30;59.40;;;;;;5031703;28;19917;-88
2023/04/14 09:24:17;;;;;;;;;;;11.50;57.70;;;;;;5030333;28;20008;-83
2023/04/14 09:26:42;;;;;;;;;;;11.50;56.80;;;;;;5031738;28;20369;-83
2023/04/14 09:29:08;;;;;;;;;;;11.50;56.50;;;;;;5032857;28;19987;-84
2023/04/14 09:31:33;;;;;;;;;;;11.70;56.60;;;;;;5061789;28;19917;-83
2023/04/14 09:33:59;;;;;;;;;;;11.60;56.20;;;;;;5032233;28;20382;-82
2023/04/14 09:36:27;;;;;;;;;;;11.60;55.90;;;;;;5032689;28;19917;-83
2023/04/14 09:38:53;;;;;;;;;;;11.70;56.80;;;;;;5032730;28;19944;-84
2023/04/14 09:41:21;;;;;;;;;;;11.70;57.90;;;;;;5048304;28;19968;-81
2023/04/14 09:43:48;;;;;;;;;;;12.10;55.70;;;;;;5048577;28;19913;-84
2023/04/14 09:46:16;;;;;;;;;;;12.10;56.70;;;;;;5036616;28;19909;-83
2023/04/14 09:48:49;;;;;;;;;;;12.30;56.60;;;;;;5033377;28;19917;-82
2023/04/14 09:51:15;;;;;;;;;;;12.50;54.90;;;;;;5033901;28;19913;-83
2023/04/14 09:53:40;;;;;;;;;;;12.60;54.60;;;;;;5033748;28;19975;-83
2023/04/14 09:56:07;;;;;;;;;;;12.60;54.20;;;;;;5034077;28;20004;-82
2023/04/14 09:58:33;;;;;;;;;;;12.50;54.00;;;;;;5057092;28;20295;-83
2023/04/14 10:01:01;;;;;;;;;;;12.40;52.70;;;;;;5033824;28;19949;-84
2023/04/14 10:03:30;;;;;;;;;;;12.40;55.70;;;;;;5029426;28;20381;-84
2023/04/14 10:05:56;;;;;;;;;;;12.40;54.80;;;;;;5033777;28;20401;-83
2023/04/14 10:08:32;;;;;;;;;;;12.60;53.20;;;;;;5035510;28;19925;-83
2023/04/14 10:11:11;;;;;;;;;;;12.70;53.20;;;;;;5035717;28;19948;-85
2023/04/14 10:13:37;;;;;;;;;;;12.60;54.60;;;;;;5035753;28;19909;-83
2023/04/14 10:16:02;;;;;;;;;;;12.60;54.30;;;;;;5033761;28;19919;-82
2023/04/14 10:18:28;;;;;;;;;;;12.60;53.50;;;;;;5034529;28;19909;-82
2023/04/14 10:20:53;;;;;;;;;;;12.50;53.50;;;;;;5028993;28;19916;-83
2023/04/14 10:23:19;;;;;;;;;;;12.50;53.70;;;;;;5046203;28;19940;-84
2023/04/14 10:25:45;;;;;;;;;;;12.50;53.50;;;;;;5031576;28;20004;-83
2023/04/14 10:28:11;;;;;;;;;;;12.40;54.10;;;;;;5039573;28;19913;-84
2023/04/14 10:30:39;;;;;;;;;;;12.40;55.20;;;;;;5032910;28;19917;-85
2023/04/14 10:33:05;;;;;;;;;;;12.50;55.60;;;;;;5049988;28;19917;-84
2023/04/14 10:35:36;;;;;;;;;;;12.60;54.30;;;;;;5034566;28;20395;-83
2023/04/14 10:38:03;;;;;;;;;;;12.70;55.70;;;;;;5050144;28;20371;-84
2023/04/14 10:40:44;;;;;;;;;;;12.80;52.90;;;;;;5036830;28;19920;-83
2023/04/14 10:43:12;;;;;;;;;;;12.80;54.10;;;;;;5055855;28;19917;-84
2023/04/14 10:45:54;;;;;;;;;;;12.90;52.70;;;;;;5070352;28;19920;-83
2023/04/14 10:48:20;;;;;;;;;;;12.80;54.10;;;;;;5048160;28;19921;-84
2023/04/14 10:50:47;;;;;;;;;;;12.60;53.80;;;;;;5030694;28;19914;-85
2023/04/14 10:53:13;;;;;;;;;;;12.60;53.10;;;;;;5036353;28;19978;-85
2023/04/14 10:55:45;;;;;;;;;;;12.80;50.40;;;;;;5034595;28;19913;-86
2023/04/14 10:58:16;;;;;;;;;;;12.80;51.50;;;;;;5031517;28;19972;-86
2023/04/14 11:00:43;;;;;;;;;;;12.80;53.90;;;;;;5030731;28;19996;-86
2023/04/14 11:03:09;;;;;;;;;;;13.10;53.60;;;;;;5033493;28;19917;-86
2023/04/14 11:05:35;;;;;;;;;;;13.20;52.30;;;;;;5041260;28;19978;-86
2023/04/14 11:08:11;;;;;;;;;;;13.30;51.40;;;;;;5032576;28;20013;-86
2023/04/14 11:10:37;;;;;;;;;;;13.10;50.10;;;;;;5027893;28;20394;-86
2023/04/14 11:13:04;;;;;;;;;;;13.10;49.80;;;;;;5016544;28;20010;-84
2023/04/14 11:15:44;;;;;;;;;;;13.30;51.70;;;;;;5032943;28;19945;-86
2023/04/14 11:18:12;;;;;;;;;;;13.40;51.80;;;;;;5048492;28;19913;-85
2023/04/14 11:20:39;;;;;;;;;;;13.30;53.20;;;;;;5032334;28;19913;-87
2023/04/14 11:23:05;;;;;;;;;;;13.50;52.70;;;;;;5031638;28;19917;-86
2023/04/14 11:25:30;;;;;;;;;;;13.60;49.90;;;;;;5033031;28;20558;-84
2023/04/14 11:28:00;;;;;;;;;;;13.90;50.40;;;;;;5033616;28;19929;-87
2023/04/14 11:30:26;;;;;;;;;;;14.20;49.70;;;;;;5032245;28;19917;-86
2023/04/14 11:32:52;;;;;;;;;;;14.40;50.50;;;;;;5032081;28;19920;-86
2023/04/14 11:35:19;;;;;;;;;;;14.40;49.10;;;;;;5034311;28;19916;-86
2023/04/14 11:37:47;;;;;;;;;;;14.20;48.60;;;;;;5034272;28;19952;-86
2023/04/14 11:40:13;;;;;;;;;;;14.10;49.50;;;;;;5043751;28;19913;-86
2023/04/14 11:42:43;;;;;;;;;;;14.10;47.90;;;;;;5051374;28;20279;-86
2023/04/14 11:45:08;;;;;;;;;;;14.10;47.00;;;;;;5032180;28;19913;-87
2023/04/14 11:47:34;;;;;;;;;;;14.20;48.20;;;;;;5034061;28;19921;-86
2023/04/14 11:50:00;;;;;;;;;;;14.10;47.10;;;;;;5033276;28;20008;-87
2023/04/14 11:52:25;;;;;;;;;;;14.20;47.60;;;;;;5034712;28;19964;-86
2023/04/14 11:54:51;;;;;;;;;;;14.20;46.50;;;;;;5029769;28;19917;-85
2023/04/14 11:57:17;;;;;;;;;;;14.10;46.70;;;;;;5048429;28;19921;-86
2023/04/14 11:59:43;;;;;;;;;;;14.10;47.00;;;;;;5032228;28;19917;-85
2023/04/14 12:02:19;;;;;;;;;;;14.20;48.00;;;;;;5035970;28;19905;-85
2023/04/14 12:04:45;;;;;;;;;;;14.20;48.70;;;;;;5043448;28;20349;-85
2023/04/14 12:07:16;;;;;;;;;;;14.10;47.20;;;;;;5031347;28;19948;-87
2023/04/14 12:09:43;;;;;;;;;;;14.10;47.40;;;;;;5025323;28;19980;-85
2023/04/14 12:12:10;;;;;;;;;;;14.10;48.20;;;;;;5021977;28;20394;-86
2023/04/14 12:14:37;;;;;;;;;;;14.10;49.10;;;;;;5030657;28;20485;-85
2023/04/14 12:17:03;;;;;;;;;;;14.10;48.00;;;;;;5032721;28;19909;-86
2023/04/14 12:19:28;;;;;;;;;;;14.30;47.80;;;;;;5031010;28;19965;-86
2023/04/14 12:21:53;;;;;;;;;;;14.50;46.50;;;;;;5029300;28;20378;-86
2023/04/14 12:24:19;;;;;;;;;;;14.50;44.90;;;;;;5032404;28;19909;-86
2023/04/14 12:26:45;;;;;;;;;;;14.60;47.10;;;;;;5031178;28;19963;-85
2023/04/14 12:29:13;;;;;;;;;;;14.70;46.10;;;;;;5031734;28;19951;-86
2023/04/14 12:31:45;;;;;;;;;;;14.90;44.60;;;;;;5029921;28;19913;-85
2023/04/14 12:34:13;;;;;;;;;;;14.90;44.10;;;;;;5031350;28;20381;-86
2023/04/14 12:36:39;;;;;;;;;;;14.90;45.10;;;;;;5030253;28;19952;-88
2023/04/14 12:39:05;;;;;;;;;;;14.80;47.00;;;;;;5028984;28;19980;-85
2023/04/14 12:41:33;;;;;;;;;;;14.80;46.60;;;;;;5030109;28;19924;-86
2023/04/14 12:44:19;;;;;;;;;;;14.90;45.20;;;;;;5037616;28;20793;-90
2023/04/14 12:46:48;;;;;;;;;;;15.00;45.00;;;;;;5031894;28;19960;-84
2023/04/14 12:49:29;;;;;;;;;;;15.00;44.90;;;;;;5028878;28;19920;-89
2023/04/14 12:51:55;;;;;;;;;;;15.10;44.90;;;;;;5025867;28;19921;-85
2023/04/14 12:54:20;;;;;;;;;;;15.00;44.30;;;;;;5026576;28;19917;-87
2023/04/14 12:56:46;;;;;;;;;;;14.90;45.30;;;;;;5023809;28;19928;-88
2023/04/14 12:59:13;;;;;;;;;;;14.90;46.70;;;;;;5024667;28;19913;-86
2023/04/14 13:01:39;;;;;;;;;;;14.90;44.00;;;;;;5021885;28;20298;-88
2023/04/14 13:04:05;;;;;;;;;;;14.90;46.10;;;;;;5024070;28;20247;-87
2023/04/14 13:06:31;;;;;;;;;;;14.80;44.50;;;;;;5026747;28;19996;-87
2023/04/14 13:08:57;;;;;;;;;;;14.90;44.70;;;;;;5022207;28;20017;-85
2023/04/14 13:11:23;;;;;;;;;;;15.10;45.20;;;;;;5023060;28;20291;-86
2023/04/14 13:13:48;;;;;;;;;;;15.20;44.30;;;;;;5023256;28;19925;-87
2023/04/14 13:16:15;;;;;;;;;;;15.20;44.50;;;;;;5024897;28;19921;-87
2023/04/14 13:18:43;;;;;;;;;;;14.90;43.90;;;;;;5028633;28;20331;-88
2023/04/14 13:21:08;;;;;;;;;;;14.60;46.70;;;;;;5024561;28;20375;-88
2023/04/14 13:23:34;;;;;;;;;;;14.50;45.20;;;;;;5030998;28;19944;-87
2023/04/14 13:26:00;;;;;;;;;;;14.50;47.10;;;;;;5029372;28;19914;-88
2023/04/14 13:28:26;;;;;;;;;;;14.60;45.60;;;;;;5029400;28;20020;-88
2023/04/14 13:30:53;;;;;;;;;;;14.70;45.20;;;;;;5035959;28;20244;-88
2023/04/14 13:33:19;;;;;;;;;;;15.00;44.40;;;;;;5027861;28;20032;-88
2023/04/14 13:35:45;;;;;;;;;;;15.20;42.70;;;;;;5032350;28;19917;-87
2023/04/14 13:38:10;;;;;;;;;;;15.20;44.20;;;;;;5026769;28;20016;-88
2023/04/14 13:40:36;;;;;;;;;;;15.20;42.60;;;;;;5029555;28;19917;-90
2023/04/14 13:43:12;;;;;;;;;;;15.20;44.30;;;;;;5042532;28;19909;-91
2023/04/14 13:46:12;;;;;;;;;;;;;;;;;;;;;
2023/04/14 13:48:38;;;;;;;;;;;15.30;43.80;;;;;;5016901;28;19913;-90
2023/04/14 13:51:04;;;;;;;;;;;15.40;42.70;;;;;;5031976;28;20007;-91
2023/04/14 13:53:30;;;;;;;;;;;15.70;42.90;;;;;;5034738;28;19917;-90
2023/04/14 13:55:55;;;;;;;;;;;15.80;41.60;;;;;;5035259;28;20465;-90
2023/04/14 13:58:25;;;;;;;;;;;15.70;40.70;;;;;;5031210;28;19920;-91
2023/04/14 14:00:50;;;;;;;;;;;15.50;42.80;;;;;;5029211;28;20012;-90
2023/04/14 14:03:16;;;;;;;;;;;15.50;46.20;;;;;;5034627;28;20008;-90
2023/04/14 14:05:41;;;;;;;;;;;15.30;46.70;;;;;;5034178;28;19952;-91
2023/04/14 14:08:07;;;;;;;;;;;15.30;49.70;;;;;;5033697;28;20379;-90
2023/04/14 14:10:32;;;;;;;;;;;15.10;49.30;;;;;;5034753;28;19913;-90
2023/04/14 14:13:16;;;;;;;;;;;15.00;51.00;;;;;;5034984;28;19992;-90
2023/04/14 14:15:41;;;;;;;;;;;15.00;48.70;;;;;;5033003;28;19909;-90
2023/04/14 14:18:12;;;;;;;;;;;15.00;50.40;;;;;;5034839;28;20416;-90
2023/04/14 14:20:41;;;;;;;;;;;15.10;47.60;;;;;;5035779;28;19967;-90
2023/04/14 14:23:25;;;;;;;;;;;15.10;49.30;;;;;;5036415;28;19939;-90